sensor_id;sensor_type;location;lat;lon;timestamp;temperature;humidity
24408;DHT22;12542;50.924;4.516;2023-04-06T00:02:07;6.90;99.90
24408;DHT22;12542;50.924;4.516;2023-04-06T00:04:32;6.90;99.90
24408;DHT22;12542;50.924;4.516;2023-04-06T00:06:58;7.00;99.90
24408;DHT22;12542;50.924;4.516;2023-04-06T00:09:23;6.90;99.90
24408;DHT22;12542;50.924;4.516;2023-04-06T00:11:49;6.90;99.90
24408;DHT22;12542;50.924;4.516;2023-04-06T00:14:15;7.00;99.90
24408;DHT22;12542;50.924;4.516;2023-04-06T00:16:42;7.00;99.90
24408;DHT22;12542;50.924;4.516;2023-04-06T00:19:08;7.00;99.90
24408;DHT22;12542;50.924;4.516;2023-04-06T00:21:34;7.00;99.90
24408;DHT22;12542;50.924;4.516;2023-04-06T00:23:59;7.10;99.90
24408;DHT22;12542;50.924;4.516;2023-04-06T00:26:25;7.10;99.90
24408;DHT22;12542;50.924;4.516;2023-04-06T00:28:51;7.20;99.90
24408;DHT22;12542;50.924;4.516;2023-04-06T00:31:20;7.20;99.90
24408;DHT22;12542;50.924;4.516;2023-04-06T00:33:47;7.20;99.90
24408;DHT22;12542;50.924;4.516;2023-04-06T00:36:13;7.10;99.90
24408;DHT22;12542;50.924;4.516;2023-04-06T00:38:39;7.10;99.90
24408;DHT22;12542;50.924;4.516;2023-04-06T00:41:05;7.00;99.90
24408;DHT22;12542;50.924;4.516;2023-04-06T00:43:31;7.00;99.90
24408;DHT22;12542;50.924;4.516;2023-04-06T00:45:57;7.00;99.90
24408;DHT22;12542;50.924;4.516;2023-04-06T00:48:23;7.00;99.90
24408;DHT22;12542;50.924;4.516;2023-04-06T00:50:49;7.00;99.90
24408;DHT22;12542;50.924;4.516;2023-04-06T00:53:15;7.00;99.90
24408;DHT22;12542;50.924;4.516;2023-04-06T00:55:40;7.00;99.90
24408;DHT22;12542;50.924;4.516;2023-04-06T00:58:08;7.00;99.90
24408;DHT22;12542;50.924;4.516;2023-04-06T01:00:34;7.00;99.90
24408;DHT22;12542;50.924;4.516;2023-04-06T01:03:03;7.10;99.90
24408;DHT22;12542;50.924;4.516;2023-04-06T01:05:34;7.10;99.90
24408;DHT22;12542;50.924;4.516;2023-04-06T01:08:02;7.10;99.90
24408;DHT22;12542;50.924;4.516;2023-04-06T01:10:28;7.20;99.90
24408;DHT22;12542;50.924;4.516;2023-04-06T01:12:54;7.20;99.90
24408;DHT22;12542;50.924;4.516;2023-04-06T01:15:21;7.30;99.90
24408;DHT22;12542;50.924;4.516;2023-04-06T01:17:47;7.20;99.90
24408;DHT22;12542;50.924;4.516;2023-04-06T01:20:12;7.30;99.90
24408;DHT22;12542;50.924;4.516;2023-04-06T01:22:38;7.40;99.90
24408;DHT22;12542;50.924;4.516;2023-04-06T01:25:04;7.30;99.90
24408;DHT22;12542;50.924;4.516;2023-04-06T01:27:30;7.40;99.90
24408;DHT22;12542;50.924;4.516;2023-04-06T01:29:56;7.40;99.90
24408;DHT22;12542;50.924;4.516;2023-04-06T01:32:21;7.40;99.90
24408;DHT22;12542;50.924;4.516;2023-04-06T01:34:47;7.40;99.90
24408;DHT22;12542;50.924;4.516;2023-04-06T01:37:13;7.40;99.90
24408;DHT22;12542;50.924;4.516;2023-04-06T01:39:39;7.50;99.90
24408;DHT22;12542;50.924;4.516;2023-04-06T01:42:05;7.50;99.90
24408;DHT22;12542;50.924;4.516;2023-04-06T01:44:32;7.40;99.90
24408;DHT22;12542;50.924;4.516;2023-04-06T01:46:58;7.40;99.90
24408;DHT22;12542;50.924;4.516;2023-04-06T01:49:24;7.40;99.90
24408;DHT22;12542;50.924;4.516;2023-04-06T01:51:50;7.30;99.90
24408;DHT22;12542;50.924;4.516;2023-04-06T01:54:15;7.30;99.90
24408;DHT22;12542;50.924;4.516;2023-04-06T01:56:44;7.40;99.90
24408;DHT22;12542;50.924;4.516;2023-04-06T01:59:10;7.20;99.90
24408;DHT22;12542;50.924;4.516;2023-04-06T02:01:35;7.20;99.90
24408;DHT22;12542;50.924;4.516;2023-04-06T02:04:01;7.20;99.90
24408;DHT22;12542;50.924;4.516;2023-04-06T02:06:27;7.30;99.90
24408;DHT22;12542;50.924;4.516;2023-04-06T02:08:52;7.40;99.90
24408;DHT22;12542;50.924;4.516;2023-04-06T02:11:18;7.50;99.90
24408;DHT22;12542;50.924;4.516;2023-04-06T02:13:44;7.60;99.90
24408;DHT22;12542;50.924;4.516;2023-04-06T02:16:09;7.80;99.90
24408;DHT22;12542;50.924;4.516;2023-04-06T02:18:35;7.80;99.90
24408;DHT22;12542;50.924;4.516;2023-04-06T02:21:01;7.90;99.90
24408;DHT22;12542;50.924;4.516;2023-04-06T02:23:27;7.60;99.90
24408;DHT22;12542;50.924;4.516;2023-04-06T02:25:53;7.80;99.90
24408;DHT22;12542;50.924;4.516;2023-04-06T02:28:18;7.90;99.90
24408;DHT22;12542;50.924;4.516;2023-04-06T02:30:44;8.10;99.90
24408;DHT22;12542;50.924;4.516;2023-04-06T02:33:10;8.10;99.90
24408;DHT22;12542;50.924;4.516;2023-04-06T02:35:36;8.20;99.90
24408;DHT22;12542;50.924;4.516;2023-04-06T02:38:04;8.30;99.90
24408;DHT22;12542;50.924;4.516;2023-04-06T02:40:29;8.10;99.90
24408;DHT22;12542;50.924;4.516;2023-04-06T02:42:55;8.00;99.90
24408;DHT22;12542;50.924;4.516;2023-04-06T02:45:21;7.90;99.90
24408;DHT22;12542;50.924;4.516;2023-04-06T02:47:47;7.80;99.90
24408;DHT22;12542;50.924;4.516;2023-04-06T02:50:12;7.90;99.90
24408;DHT22;12542;50.924;4.516;2023-04-06T02:52:38;7.90;99.90
24408;DHT22;12542;50.924;4.516;2023-04-06T02:55:04;7.90;99.90
24408;DHT22;12542;50.924;4.516;2023-04-06T02:57:32;7.70;99.90
24408;DHT22;12542;50.924;4.516;2023-04-06T02:59:57;7.50;99.90
24408;DHT22;12542;50.924;4.516;2023-04-06T03:02:23;7.60;99.90
24408;DHT22;12542;50.924;4.516;2023-04-06T03:04:49;7.60;99.90
24408;DHT22;12542;50.924;4.516;2023-04-06T03:07:15;7.50;99.90
24408;DHT22;12542;50.924;4.516;2023-04-06T03:09:40;7.40;99.90
24408;DHT22;12542;50.924;4.516;2023-04-06T03:12:06;7.30;99.90
24408;DHT22;12542;50.924;4.516;2023-04-06T03:14:32;7.20;99.90
24408;DHT22;12542;50.924;4.516;2023-04-06T03:16:57;7.10;99.90
24408;DHT22;12542;50.924;4.516;2023-04-06T03:19:23;7.00;99.90
24408;DHT22;12542;50.924;4.516;2023-04-06T03:21:49;7.00;99.90
24408;DHT22;12542;50.924;4.516;2023-04-06T03:24:15;7.00;99.90
24408;DHT22;12542;50.924;4.516;2023-04-06T03:26:41;7.00;99.90
24408;DHT22;12542;50.924;4.516;2023-04-06T03:29:06;7.10;99.90
24408;DHT22;12542;50.924;4.516;2023-04-06T03:31:32;6.90;99.90
24408;DHT22;12542;50.924;4.516;2023-04-06T03:33:58;6.90;99.90
24408;DHT22;12542;50.924;4.516;2023-04-06T03:36:24;6.80;99.90
24408;DHT22;12542;50.924;4.516;2023-04-06T03:38:51;6.90;99.90
24408;DHT22;12542;50.924;4.516;2023-04-06T03:41:19;7.00;99.90
24408;DHT22;12542;50.924;4.516;2023-04-06T03:43:45;7.00;99.90
24408;DHT22;12542;50.924;4.516;2023-04-06T03:46:11;6.90;99.90
24408;DHT22;12542;50.924;4.516;2023-04-06T03:48:36;6.80;99.90
24408;DHT22;12542;50.924;4.516;2023-04-06T03:51:02;6.80;99.90
24408;DHT22;12542;50.924;4.516;2023-04-06T03:53:28;6.60;99.90
24408;DHT22;12542;50.924;4.516;2023-04-06T03:55:53;6.70;99.90
24408;DHT22;12542;50.924;4.516;2023-04-06T03:58:19;6.80;99.90
24408;DHT22;12542;50.924;4.516;2023-04-06T04:00:45;6.70;99.90
24408;DHT22;12542;50.924;4.516;2023-04-06T04:03:11;6.60;99.90
24408;DHT22;12542;50.924;4.516;2023-04-06T04:05:36;6.70;99.90
24408;DHT22;12542;50.924;4.516;2023-04-06T04:08:02;6.70;99.90
24408;DHT22;12542;50.924;4.516;2023-04-06T04:10:28;6.80;99.90
24408;DHT22;12542;50.924;4.516;2023-04-06T04:12:53;6.80;99.90
24408;DHT22;12542;50.924;4.516;2023-04-06T04:15:19;6.80;99.90
24408;DHT22;12542;50.924;4.516;2023-04-06T04:17:45;6.90;99.90
24408;DHT22;12542;50.924;4.516;2023-04-06T04:20:15;7.00;99.90
24408;DHT22;12542;50.924;4.516;2023-04-06T04:22:42;7.00;99.90
24408;DHT22;12542;50.924;4.516;2023-04-06T04:25:08;7.00;99.90
24408;DHT22;12542;50.924;4.516;2023-04-06T04:27:34;7.10;99.90
24408;DHT22;12542;50.924;4.516;2023-04-06T04:29:59;7.10;99.90
24408;DHT22;12542;50.924;4.516;2023-04-06T04:32:25;7.20;99.90
24408;DHT22;12542;50.924;4.516;2023-04-06T04:34:55;7.20;99.90
24408;DHT22;12542;50.924;4.516;2023-04-06T04:37:20;7.20;99.90
24408;DHT22;12542;50.924;4.516;2023-04-06T04:39:46;7.30;99.90
24408;DHT22;12542;50.924;4.516;2023-04-06T04:42:12;7.50;99.90
24408;DHT22;12542;50.924;4.516;2023-04-06T04:44:37;7.60;99.90
24408;DHT22;12542;50.924;4.516;2023-04-06T04:47:03;7.40;99.90
24408;DHT22;12542;50.924;4.516;2023-04-06T04:49:29;7.30;99.90
24408;DHT22;12542;50.924;4.516;2023-04-06T04:51:55;7.50;99.90
24408;DHT22;12542;50.924;4.516;2023-04-06T04:54:20;7.40;99.90
24408;DHT22;12542;50.924;4.516;2023-04-06T04:56:46;7.50;99.90
24408;DHT22;12542;50.924;4.516;2023-04-06T04:59:12;7.50;99.90
24408;DHT22;12542;50.924;4.516;2023-04-06T05:01:40;7.50;99.90
24408;DHT22;12542;50.924;4.516;2023-04-06T05:04:05;7.50;99.90
24408;DHT22;12542;50.924;4.516;2023-04-06T05:06:31;7.70;99.90
24408;DHT22;12542;50.924;4.516;2023-04-06T05:08:57;7.60;99.90
24408;DHT22;12542;50.924;4.516;2023-04-06T05:11:22;7.80;99.90
24408;DHT22;12542;50.924;4.516;2023-04-06T05:13:48;8.00;99.90
24408;DHT22;12542;50.924;4.516;2023-04-06T05:16:14;8.10;99.90
24408;DHT22;12542;50.924;4.516;2023-04-06T05:18:39;8.20;99.90
24408;DHT22;12542;50.924;4.516;2023-04-06T05:21:05;8.30;99.90
24408;DHT22;12542;50.924;4.516;2023-04-06T05:23:31;8.30;99.90
24408;DHT22;12542;50.924;4.516;2023-04-06T05:25:57;8.40;99.90
24408;DHT22;12542;50.924;4.516;2023-04-06T05:28:23;8.30;99.90
24408;DHT22;12542;50.924;4.516;2023-04-06T05:30:48;8.40;99.90
24408;DHT22;12542;50.924;4.516;2023-04-06T05:33:14;8.30;99.90
24408;DHT22;12542;50.924;4.516;2023-04-06T05:35:40;8.30;99.90
24408;DHT22;12542;50.924;4.516;2023-04-06T05:38:08;8.30;99.90
24408;DHT22;12542;50.924;4.516;2023-04-06T05:40:35;8.30;99.90
24408;DHT22;12542;50.924;4.516;2023-04-06T05:43:02;8.10;99.90
24408;DHT22;12542;50.924;4.516;2023-04-06T05:45:28;8.10;99.90
24408;DHT22;12542;50.924;4.516;2023-04-06T05:47:53;8.20;99.90
24408;DHT22;12542;50.924;4.516;2023-04-06T05:50:19;8.50;99.90
24408;DHT22;12542;50.924;4.516;2023-04-06T05:52:45;8.60;99.90
24408;DHT22;12542;50.924;4.516;2023-04-06T05:55:11;8.80;99.90
24408;DHT22;12542;50.924;4.516;2023-04-06T05:57:37;8.80;99.90
24408;DHT22;12542;50.924;4.516;2023-04-06T06:00:04;8.70;99.90
24408;DHT22;12542;50.924;4.516;2023-04-06T06:02:31;8.70;99.90
24408;DHT22;12542;50.924;4.516;2023-04-06T06:04:57;8.70;99.90
24408;DHT22;12542;50.924;4.516;2023-04-06T06:07:23;8.70;99.90
24408;DHT22;12542;50.924;4.516;2023-04-06T06:09:49;8.70;99.90
24408;DHT22;12542;50.924;4.516;2023-04-06T06:12:15;8.60;99.90
24408;DHT22;12542;50.924;4.516;2023-04-06T06:14:41;8.60;99.90
24408;DHT22;12542;50.924;4.516;2023-04-06T06:17:07;8.70;99.90
24408;DHT22;12542;50.924;4.516;2023-04-06T06:19:33;8.70;99.90
24408;DHT22;12542;50.924;4.516;2023-04-06T06:21:58;9.00;99.90
24408;DHT22;12542;50.924;4.516;2023-04-06T06:24:28;9.20;99.90
24408;DHT22;12542;50.924;4.516;2023-04-06T06:26:54;9.40;99.90
24408;DHT22;12542;50.924;4.516;2023-04-06T06:29:19;9.60;99.90
24408;DHT22;12542;50.924;4.516;2023-04-06T06:31:45;9.80;99.90
24408;DHT22;12542;50.924;4.516;2023-04-06T06:34:11;9.80;99.90
24408;DHT22;12542;50.924;4.516;2023-04-06T06:36:38;9.80;99.90
24408;DHT22;12542;50.924;4.516;2023-04-06T06:39:04;10.00;99.90
24408;DHT22;12542;50.924;4.516;2023-04-06T06:41:29;10.10;99.90
24408;DHT22;12542;50.924;4.516;2023-04-06T06:43:55;10.10;99.90
24408;DHT22;12542;50.924;4.516;2023-04-06T06:46:21;10.20;99.90
24408;DHT22;12542;50.924;4.516;2023-04-06T06:48:47;10.30;99.90
24408;DHT22;12542;50.924;4.516;2023-04-06T06:51:12;10.10;99.90
24408;DHT22;12542;50.924;4.516;2023-04-06T06:53:38;9.90;99.90
24408;DHT22;12542;50.924;4.516;2023-04-06T06:56:04;10.00;99.90
24408;DHT22;12542;50.924;4.516;2023-04-06T06:58:29;9.90;99.90
24408;DHT22;12542;50.924;4.516;2023-04-06T07:00:56;10.10;99.90
24408;DHT22;12542;50.924;4.516;2023-04-06T07:03:22;10.20;99.90
24408;DHT22;12542;50.924;4.516;2023-04-06T07:05:49;10.30;99.90
24408;DHT22;12542;50.924;4.516;2023-04-06T07:08:22;10.40;99.90
24408;DHT22;12542;50.924;4.516;2023-04-06T07:10:49;10.50;99.90
24408;DHT22;12542;50.924;4.516;2023-04-06T07:13:15;10.40;99.90
24408;DHT22;12542;50.924;4.516;2023-04-06T07:15:48;10.30;99.90
24408;DHT22;12542;50.924;4.516;2023-04-06T07:18:14;10.30;99.90
24408;DHT22;12542;50.924;4.516;2023-04-06T07:20:40;10.20;99.90
24408;DHT22;12542;50.924;4.516;2023-04-06T07:23:06;10.30;99.90
24408;DHT22;12542;50.924;4.516;2023-04-06T07:25:36;10.20;99.90
24408;DHT22;12542;50.924;4.516;2023-04-06T07:28:03;9.70;99.90
24408;DHT22;12542;50.924;4.516;2023-04-06T07:30:29;9.40;99.90
24408;DHT22;12542;50.924;4.516;2023-04-06T07:32:55;9.10;99.90
24408;DHT22;12542;50.924;4.516;2023-04-06T07:35:24;8.90;99.90
24408;DHT22;12542;50.924;4.516;2023-04-06T07:37:51;8.80;99.90
24408;DHT22;12542;50.924;4.516;2023-04-06T07:40:17;8.60;99.90
24408;DHT22;12542;50.924;4.516;2023-04-06T07:42:47;8.50;99.90
24408;DHT22;12542;50.924;4.516;2023-04-06T07:45:13;8.50;99.90
24408;DHT22;12542;50.924;4.516;2023-04-06T07:47:42;8.50;99.90
24408;DHT22;12542;50.924;4.516;2023-04-06T07:50:08;8.50;99.90
24408;DHT22;12542;50.924;4.516;2023-04-06T07:52:33;8.60;99.90
24408;DHT22;12542;50.924;4.516;2023-04-06T07:54:59;8.60;99.90
24408;DHT22;12542;50.924;4.516;2023-04-06T07:57:25;8.40;99.90
24408;DHT22;12542;50.924;4.516;2023-04-06T07:59:51;8.40;99.90
24408;DHT22;12542;50.924;4.516;2023-04-06T08:02:17;8.40;99.90
24408;DHT22;12542;50.924;4.516;2023-04-06T08:04:43;8.30;99.90
24408;DHT22;12542;50.924;4.516;2023-04-06T08:07:09;8.50;99.90
24408;DHT22;12542;50.924;4.516;2023-04-06T08:09:34;8.60;99.90
24408;DHT22;12542;50.924;4.516;2023-04-06T08:12:00;8.80;99.90
24408;DHT22;12542;50.924;4.516;2023-04-06T08:14:26;8.90;99.90
24408;DHT22;12542;50.924;4.516;2023-04-06T08:16:52;8.80;99.90
24408;DHT22;12542;50.924;4.516;2023-04-06T08:19:17;8.70;99.90
24408;DHT22;12542;50.924;4.516;2023-04-06T08:21:44;8.80;99.90
24408;DHT22;12542;50.924;4.516;2023-04-06T08:24:11;8.80;99.90
24408;DHT22;12542;50.924;4.516;2023-04-06T08:26:37;8.70;99.90
24408;DHT22;12542;50.924;4.516;2023-04-06T08:29:03;8.60;99.90
24408;DHT22;12542;50.924;4.516;2023-04-06T08:31:30;8.60;99.90
24408;DHT22;12542;50.924;4.516;2023-04-06T08:33:56;8.80;99.90
24408;DHT22;12542;50.924;4.516;2023-04-06T08:36:21;8.90;99.90
24408;DHT22;12542;50.924;4.516;2023-04-06T08:38:49;8.90;99.90
24408;DHT22;12542;50.924;4.516;2023-04-06T08:41:15;8.90;99.90
24408;DHT22;12542;50.924;4.516;2023-04-06T08:43:48;8.70;99.90
24408;DHT22;12542;50.924;4.516;2023-04-06T08:46:14;8.70;99.90
24408;DHT22;12542;50.924;4.516;2023-04-06T08:48:42;8.70;99.90
24408;DHT22;12542;50.924;4.516;2023-04-06T08:51:10;8.70;99.90
24408;DHT22;12542;50.924;4.516;2023-04-06T08:53:37;8.80;99.90
24408;DHT22;12542;50.924;4.516;2023-04-06T08:56:04;8.80;99.90
24408;DHT22;12542;50.924;4.516;2023-04-06T08:58:34;8.80;99.90
24408;DHT22;12542;50.924;4.516;2023-04-06T09:01:00;8.80;99.90
24408;DHT22;12542;50.924;4.516;2023-04-06T09:03:28;8.70;99.90
24408;DHT22;12542;50.924;4.516;2023-04-06T09:05:54;8.70;99.90
24408;DHT22;12542;50.924;4.516;2023-04-06T09:08:20;8.80;99.90
24408;DHT22;12542;50.924;4.516;2023-04-06T09:10:46;8.90;99.90
24408;DHT22;12542;50.924;4.516;2023-04-06T09:13:13;8.90;99.90
24408;DHT22;12542;50.924;4.516;2023-04-06T09:15:38;8.90;99.90
24408;DHT22;12542;50.924;4.516;2023-04-06T09:18:04;8.70;99.90
24408;DHT22;12542;50.924;4.516;2023-04-06T09:20:31;8.70;99.90
24408;DHT22;12542;50.924;4.516;2023-04-06T09:22:56;8.90;99.90
24408;DHT22;12542;50.924;4.516;2023-04-06T09:25:23;8.80;99.90
24408;DHT22;12542;50.924;4.516;2023-04-06T09:28:02;8.60;99.90
24408;DHT22;12542;50.924;4.516;2023-04-06T09:30:28;8.60;99.90
24408;DHT22;12542;50.924;4.516;2023-04-06T09:32:56;8.50;99.90
24408;DHT22;12542;50.924;4.516;2023-04-06T09:35:23;8.60;99.90
24408;DHT22;12542;50.924;4.516;2023-04-06T09:37:50;8.70;99.90
24408;DHT22;12542;50.924;4.516;2023-04-06T09:40:17;8.70;99.90
24408;DHT22;12542;50.924;4.516;2023-04-06T09:42:48;8.60;99.90
24408;DHT22;12542;50.924;4.516;2023-04-06T09:45:16;8.60;99.90
24408;DHT22;12542;50.924;4.516;2023-04-06T09:47:43;8.60;99.90
24408;DHT22;12542;50.924;4.516;2023-04-06T09:50:11;8.60;99.90
24408;DHT22;12542;50.924;4.516;2023-04-06T09:52:42;8.50;99.90
24408;DHT22;12542;50.924;4.516;2023-04-06T09:55:12;8.60;99.90
24408;DHT22;12542;50.924;4.516;2023-04-06T09:57:57;8.50;99.90
24408;DHT22;12542;50.924;4.516;2023-04-06T10:00:24;8.60;99.90
24408;DHT22;12542;50.924;4.516;2023-04-06T10:05:53;8.60;99.90
24408;DHT22;12542;50.924;4.516;2023-04-06T10:08:22;8.50;99.90
24408;DHT22;12542;50.924;4.516;2023-04-06T10:10:50;8.50;99.90
24408;DHT22;12542;50.924;4.516;2023-04-06T10:13:18;8.50;99.90
24408;DHT22;12542;50.924;4.516;2023-04-06T10:15:45;8.50;99.90
24408;DHT22;12542;50.924;4.516;2023-04-06T10:18:12;8.60;99.90
24408;DHT22;12542;50.924;4.516;2023-04-06T10:20:57;8.80;99.90
24408;DHT22;12542;50.924;4.516;2023-04-06T10:23:58;8.80;99.90
24408;DHT22;12542;50.924;4.516;2023-04-06T10:26:22;8.60;99.90
24408;DHT22;12542;50.924;4.516;2023-04-06T10:28:50;8.50;99.90
24408;DHT22;12542;50.924;4.516;2023-04-06T10:31:24;8.60;99.90
24408;DHT22;12542;50.924;4.516;2023-04-06T10:33:59;8.60;99.90
24408;DHT22;12542;50.924;4.516;2023-04-06T10:36:27;8.70;99.90
24408;DHT22;12542;50.924;4.516;2023-04-06T10:38:58;8.70;99.90
24408;DHT22;12542;50.924;4.516;2023-04-06T10:41:35;8.70;99.90
24408;DHT22;12542;50.924;4.516;2023-04-06T10:44:01;8.70;99.90
24408;DHT22;12542;50.924;4.516;2023-04-06T10:46:29;8.90;99.90
24408;DHT22;12542;50.924;4.516;2023-04-06T10:48:55;9.00;99.90
24408;DHT22;12542;50.924;4.516;2023-04-06T10:51:26;9.00;99.90
24408;DHT22;12542;50.924;4.516;2023-04-06T10:53:55;9.00;99.90
24408;DHT22;12542;50.924;4.516;2023-04-06T10:56:24;9.00;99.90
24408;DHT22;12542;50.924;4.516;2023-04-06T10:58:54;8.90;99.90
24408;DHT22;12542;50.924;4.516;2023-04-06T11:01:24;9.00;99.90
24408;DHT22;12542;50.924;4.516;2023-04-06T11:03:56;9.00;99.90
24408;DHT22;12542;50.924;4.516;2023-04-06T11:06:28;9.00;99.90
24408;DHT22;12542;50.924;4.516;2023-04-06T11:08:55;8.90;99.90
24408;DHT22;12542;50.924;4.516;2023-04-06T11:11:23;9.00;99.90
24408;DHT22;12542;50.924;4.516;2023-04-06T11:13:59;9.00;99.90
24408;DHT22;12542;50.924;4.516;2023-04-06T11:16:26;9.10;99.90
24408;DHT22;12542;50.924;4.516;2023-04-06T11:21:36;9.00;99.90
24408;DHT22;12542;50.924;4.516;2023-04-06T11:24:14;9.00;99.90
24408;DHT22;12542;50.924;4.516;2023-04-06T11:27:00;9.10;99.90
24408;DHT22;12542;50.924;4.516;2023-04-06T11:29:28;9.00;99.90
24408;DHT22;12542;50.924;4.516;2023-04-06T11:32:06;9.00;99.90
24408;DHT22;12542;50.924;4.516;2023-04-06T11:34:35;9.10;99.90
24408;DHT22;12542;50.924;4.516;2023-04-06T11:37:03;9.00;99.90
24408;DHT22;12542;50.924;4.516;2023-04-06T11:39:47;8.90;99.90
24408;DHT22;12542;50.924;4.516;2023-04-06T11:42:24;9.00;99.90
24408;DHT22;12542;50.924;4.516;2023-04-06T11:44:55;9.00;99.90
24408;DHT22;12542;50.924;4.516;2023-04-06T11:47:33;9.10;99.90
24408;DHT22;12542;50.924;4.516;2023-04-06T11:50:10;9.10;99.90
24408;DHT22;12542;50.924;4.516;2023-04-06T11:52:37;9.20;99.90
24408;DHT22;12542;50.924;4.516;2023-04-06T11:55:17;9.10;99.90
24408;DHT22;12542;50.924;4.516;2023-04-06T11:57:45;9.20;99.90
24408;DHT22;12542;50.924;4.516;2023-04-06T12:00:12;9.30;99.90
24408;DHT22;12542;50.924;4.516;2023-04-06T12:02:38;9.20;99.90
24408;DHT22;12542;50.924;4.516;2023-04-06T12:05:05;9.20;99.90
24408;DHT22;12542;50.924;4.516;2023-04-06T12:07:32;9.10;99.90
24408;DHT22;12542;50.924;4.516;2023-04-06T12:10:00;9.20;99.90
24408;DHT22;12542;50.924;4.516;2023-04-06T12:12:26;9.10;99.90
24408;DHT22;12542;50.924;4.516;2023-04-06T12:14:52;9.20;99.90
24408;DHT22;12542;50.924;4.516;2023-04-06T12:17:19;9.30;99.90
24408;DHT22;12542;50.924;4.516;2023-04-06T12:19:49;9.40;99.90
24408;DHT22;12542;50.924;4.516;2023-04-06T12:22:15;9.40;99.90
24408;DHT22;12542;50.924;4.516;2023-04-06T12:24:41;9.40;99.90
24408;DHT22;12542;50.924;4.516;2023-04-06T12:27:06;9.30;99.90
24408;DHT22;12542;50.924;4.516;2023-04-06T12:29:34;9.40;99.90
24408;DHT22;12542;50.924;4.516;2023-04-06T12:32:00;9.50;99.90
24408;DHT22;12542;50.924;4.516;2023-04-06T12:34:26;9.50;99.90
24408;DHT22;12542;50.924;4.516;2023-04-06T12:36:52;9.60;99.90
24408;DHT22;12542;50.924;4.516;2023-04-06T12:39:18;9.60;99.90
24408;DHT22;12542;50.924;4.516;2023-04-06T12:41:45;9.50;99.90
24408;DHT22;12542;50.924;4.516;2023-04-06T12:44:11;9.70;99.90
24408;DHT22;12542;50.924;4.516;2023-04-06T12:46:37;9.40;99.90
24408;DHT22;12542;50.924;4.516;2023-04-06T12:49:02;9.50;99.90
24408;DHT22;12542;50.924;4.516;2023-04-06T12:51:28;9.50;99.90
24408;DHT22;12542;50.924;4.516;2023-04-06T12:53:54;9.50;99.90
24408;DHT22;12542;50.924;4.516;2023-04-06T12:56:20;9.60;99.90
24408;DHT22;12542;50.924;4.516;2023-04-06T12:58:51;9.40;99.90
24408;DHT22;12542;50.924;4.516;2023-04-06T13:01:17;9.50;99.90
24408;DHT22;12542;50.924;4.516;2023-04-06T13:03:43;9.60;99.90
24408;DHT22;12542;50.924;4.516;2023-04-06T13:06:09;9.50;99.90
24408;DHT22;12542;50.924;4.516;2023-04-06T13:08:35;9.50;99.90
24408;DHT22;12542;50.924;4.516;2023-04-06T13:11:02;9.70;99.90
24408;DHT22;12542;50.924;4.516;2023-04-06T13:13:29;9.60;99.90
24408;DHT22;12542;50.924;4.516;2023-04-06T13:16:03;9.60;99.90
24408;DHT22;12542;50.924;4.516;2023-04-06T13:18:30;9.50;99.90
24408;DHT22;12542;50.924;4.516;2023-04-06T13:20:57;9.40;99.90
24408;DHT22;12542;50.924;4.516;2023-04-06T13:23:23;9.30;99.90
24408;DHT22;12542;50.924;4.516;2023-04-06T13:25:57;9.30;99.90
24408;DHT22;12542;50.924;4.516;2023-04-06T13:28:24;9.40;99.90
24408;DHT22;12542;50.924;4.516;2023-04-06T13:30:49;9.30;99.90
24408;DHT22;12542;50.924;4.516;2023-04-06T13:33:15;9.30;99.90
24408;DHT22;12542;50.924;4.516;2023-04-06T13:35:44;9.30;99.90
24408;DHT22;12542;50.924;4.516;2023-04-06T13:38:11;9.30;99.90
24408;DHT22;12542;50.924;4.516;2023-04-06T13:40:39;9.30;99.90
24408;DHT22;12542;50.924;4.516;2023-04-06T13:43:05;9.40;99.90
24408;DHT22;12542;50.924;4.516;2023-04-06T13:45:31;9.40;99.90
24408;DHT22;12542;50.924;4.516;2023-04-06T13:47:57;9.40;99.90
24408;DHT22;12542;50.924;4.516;2023-04-06T13:50:25;9.30;99.90
24408;DHT22;12542;50.924;4.516;2023-04-06T13:52:51;9.40;99.90
24408;DHT22;12542;50.924;4.516;2023-04-06T13:55:17;9.40;99.90
24408;DHT22;12542;50.924;4.516;2023-04-06T13:57:43;9.30;99.90
24408;DHT22;12542;50.924;4.516;2023-04-06T14:00:09;9.40;99.90
24408;DHT22;12542;50.924;4.516;2023-04-06T14:02:36;9.50;99.90
24408;DHT22;12542;50.924;4.516;2023-04-06T14:05:02;9.50;99.90
24408;DHT22;12542;50.924;4.516;2023-04-06T14:07:28;9.70;99.90
24408;DHT22;12542;50.924;4.516;2023-04-06T14:09:54;9.60;99.90
24408;DHT22;12542;50.924;4.516;2023-04-06T14:12:20;9.50;99.90
24408;DHT22;12542;50.924;4.516;2023-04-06T14:14:46;9.60;99.90
24408;DHT22;12542;50.924;4.516;2023-04-06T14:17:11;9.80;99.90
24408;DHT22;12542;50.924;4.516;2023-04-06T14:19:37;9.90;99.90
24408;DHT22;12542;50.924;4.516;2023-04-06T14:22:03;9.80;99.90
24408;DHT22;12542;50.924;4.516;2023-04-06T14:24:30;9.70;99.90
24408;DHT22;12542;50.924;4.516;2023-04-06T14:26:56;9.70;99.90
24408;DHT22;12542;50.924;4.516;2023-04-06T14:29:22;9.70;99.90
24408;DHT22;12542;50.924;4.516;2023-04-06T14:31:48;9.70;99.90
24408;DHT22;12542;50.924;4.516;2023-04-06T14:34:14;9.70;99.90
24408;DHT22;12542;50.924;4.516;2023-04-06T14:36:41;9.70;99.90
24408;DHT22;12542;50.924;4.516;2023-04-06T14:39:07;9.80;99.90
24408;DHT22;12542;50.924;4.516;2023-04-06T14:41:34;9.70;99.90
24408;DHT22;12542;50.924;4.516;2023-04-06T14:44:00;9.60;99.90
24408;DHT22;12542;50.924;4.516;2023-04-06T14:46:27;9.60;99.90
24408;DHT22;12542;50.924;4.516;2023-04-06T14:48:56;9.70;99.90
24408;DHT22;12542;50.924;4.516;2023-04-06T14:51:27;9.80;99.90
24408;DHT22;12542;50.924;4.516;2023-04-06T14:53:53;9.90;99.90
24408;DHT22;12542;50.924;4.516;2023-04-06T14:56:23;9.90;99.90
24408;DHT22;12542;50.924;4.516;2023-04-06T14:58:52;9.90;99.90
24408;DHT22;12542;50.924;4.516;2023-04-06T15:01:21;10.10;99.90
24408;DHT22;12542;50.924;4.516;2023-04-06T15:03:46;10.10;99.90
24408;DHT22;12542;50.924;4.516;2023-04-06T15:06:14;10.30;99.90
24408;DHT22;12542;50.924;4.516;2023-04-06T15:08:41;10.30;99.90
24408;DHT22;12542;50.924;4.516;2023-04-06T15:11:07;10.30;99.90
24408;DHT22;12542;50.924;4.516;2023-04-06T15:13:32;10.30;99.90
24408;DHT22;12542;50.924;4.516;2023-04-06T15:15:58;10.40;99.90
24408;DHT22;12542;50.924;4.516;2023-04-06T15:18:26;10.40;99.90
24408;DHT22;12542;50.924;4.516;2023-04-06T15:20:52;10.50;99.90
24408;DHT22;12542;50.924;4.516;2023-04-06T15:23:17;10.60;99.90
24408;DHT22;12542;50.924;4.516;2023-04-06T15:25:44;10.70;99.90
24408;DHT22;12542;50.924;4.516;2023-04-06T15:28:10;10.70;99.90
24408;DHT22;12542;50.924;4.516;2023-04-06T15:30:36;10.90;99.90
24408;DHT22;12542;50.924;4.516;2023-04-06T15:33:04;10.90;99.90
24408;DHT22;12542;50.924;4.516;2023-04-06T15:35:30;11.00;99.90
24408;DHT22;12542;50.924;4.516;2023-04-06T15:37:56;10.80;99.90
24408;DHT22;12542;50.924;4.516;2023-04-06T15:40:23;10.70;99.90
24408;DHT22;12542;50.924;4.516;2023-04-06T15:42:49;10.70;99.90
24408;DHT22;12542;50.924;4.516;2023-04-06T15:45:15;10.60;99.90
24408;DHT22;12542;50.924;4.516;2023-04-06T15:47:44;10.60;99.90
24408;DHT22;12542;50.924;4.516;2023-04-06T15:50:11;10.70;99.90